createdAt,value
2023-05-06T00:02:09.351Z,8.77
2023-05-06T00:04:40.144Z,7.70
2023-05-06T00:07:10.729Z,8.30
2023-05-06T00:09:41.369Z,7.37
2023-05-06T00:12:13.608Z,8.00
2023-05-06T00:14:45.430Z,8.60
2023-05-06T00:17:15.708Z,9.27
2023-05-06T00:19:45.669Z,9.37
2023-05-06T00:22:16.323Z,7.23
2023-05-06T00:24:46.878Z,8.60
2023-05-06T00:27:17.824Z,8.00
2023-05-06T00:29:49.000Z,8.30
2023-05-06T00:32:19.086Z,7.40
2023-05-06T00:34:49.106Z,9.33
2023-05-06T00:37:19.791Z,7.67
2023-05-06T00:39:49.708Z,8.17
2023-05-06T00:42:23.338Z,7.50
2023-05-06T00:44:54.750Z,8.33
2023-05-06T00:47:28.868Z,10.20
2023-05-06T00:49:59.205Z,8.03
2023-05-06T00:52:32.627Z,7.60
2023-05-06T00:55:03.074Z,7.90
2023-05-06T00:57:35.068Z,7.47
2023-05-06T01:00:07.404Z,8.20
2023-05-06T01:02:46.194Z,8.23
2023-05-06T01:05:18.677Z,7.63
2023-05-06T01:07:54.719Z,7.00
2023-05-06T01:10:31.794Z,7.40
2023-05-06T01:13:09.134Z,7.30
2023-05-06T01:15:43.799Z,7.90
2023-05-06T01:18:18.378Z,8.10
2023-05-06T01:20:51.789Z,6.63
2023-05-06T01:23:23.556Z,7.47
2023-05-06T01:25:53.794Z,8.50
2023-05-06T01:28:24.120Z,8.20
2023-05-06T01:30:59.995Z,8.27
2023-05-06T01:33:37.474Z,8.73
2023-05-06T01:36:15.738Z,7.53
2023-05-06T01:38:53.031Z,6.83
2023-05-06T01:41:23.621Z,7.70
2023-05-06T01:43:56.205Z,8.03
2023-05-06T01:46:27.865Z,7.03
2023-05-06T01:48:59.755Z,7.60
2023-05-06T01:51:29.723Z,8.40
2023-05-06T01:54:01.359Z,7.03
2023-05-06T01:56:32.491Z,7.47
2023-05-06T01:59:02.839Z,8.40
2023-05-06T02:01:32.772Z,8.60
2023-05-06T02:04:03.682Z,7.37
2023-05-06T02:06:33.865Z,8.10
2023-05-06T02:09:06.968Z,7.80
2023-05-06T02:11:37.902Z,8.07
2023-05-06T02:14:09.795Z,7.17
2023-05-06T02:16:39.888Z,6.60
2023-05-06T02:19:10.828Z,7.20
2023-05-06T02:21:41.599Z,8.87
2023-05-06T02:24:13.411Z,7.60
2023-05-06T02:26:43.420Z,8.30
2023-05-06T02:29:14.071Z,7.57
2023-05-06T02:31:44.099Z,8.43
2023-05-06T02:34:14.952Z,7.60
2023-05-06T02:36:45.559Z,7.80
2023-05-06T02:39:17.799Z,7.70
2023-05-06T02:41:48.698Z,7.97
2023-05-06T02:44:18.965Z,8.60
2023-05-06T02:46:48.859Z,8.73
2023-05-06T02:49:19.366Z,8.77
2023-05-06T02:51:48.603Z,8.10
2023-05-06T02:54:19.972Z,7.80
2023-05-06T02:56:50.153Z,7.43
2023-05-06T02:59:20.237Z,7.27
2023-05-06T03:01:50.890Z,7.53
2023-05-06T03:04:21.546Z,7.80
2023-05-06T03:06:51.610Z,7.70
2023-05-06T03:09:23.050Z,8.83
2023-05-06T03:11:52.894Z,7.43
2023-05-06T03:14:23.381Z,7.77
2023-05-06T03:16:53.255Z,7.10
2023-05-06T03:19:23.614Z,7.87
2023-05-06T03:21:53.631Z,7.60
2023-05-06T03:24:25.715Z,7.43
2023-05-06T03:26:55.582Z,6.70
2023-05-06T03:29:25.536Z,8.33
2023-05-06T03:31:58.966Z,8.37
2023-05-06T03:34:29.385Z,8.20
2023-05-06T03:36:59.359Z,7.00
2023-05-06T03:39:31.584Z,7.60
2023-05-06T03:42:02.550Z,7.83
2023-05-06T03:44:32.352Z,7.80
2023-05-06T03:47:02.576Z,8.10
2023-05-06T03:49:32.633Z,8.90
2023-05-06T03:52:03.216Z,8.57
2023-05-06T03:54:34.962Z,7.43
2023-05-06T03:57:05.906Z,8.00
2023-05-06T03:59:36.247Z,8.67
2023-05-06T04:02:05.961Z,8.17
2023-05-06T04:04:36.332Z,7.70
2023-05-06T04:07:06.607Z,8.27
2023-05-06T04:09:37.704Z,8.30
2023-05-06T04:12:08.492Z,7.50
2023-05-06T04:14:38.398Z,8.20
2023-05-06T04:17:09.909Z,8.90
2023-05-06T04:19:39.934Z,8.33
2023-05-06T04:22:09.607Z,6.70
2023-05-06T04:24:46.024Z,7.77
2023-05-06T04:27:17.112Z,7.80
2023-05-06T04:29:47.762Z,8.73
2023-05-06T04:32:18.412Z,8.00
2023-05-06T04:34:48.497Z,9.03
2023-05-06T04:37:19.034Z,8.30
2023-05-06T04:39:50.075Z,8.17
2023-05-06T04:42:19.896Z,8.50
2023-05-06T04:44:49.974Z,9.10
2023-05-06T04:47:20.660Z,9.40
2023-05-06T04:49:51.125Z,9.10
2023-05-06T04:52:21.531Z,9.30
2023-05-06T04:54:53.159Z,10.77
2023-05-06T04:57:23.574Z,10.83
2023-05-06T04:59:53.529Z,8.80
2023-05-06T05:02:23.863Z,8.77
2023-05-06T05:04:53.934Z,9.20
2023-05-06T05:07:25.069Z,9.00
2023-05-06T05:09:58.504Z,9.33
2023-05-06T05:12:28.002Z,9.00
2023-05-06T05:14:57.950Z,9.63
2023-05-06T05:17:28.631Z,9.67
2023-05-06T05:19:58.549Z,12.97
2023-05-06T05:22:28.379Z,9.13
2023-05-06T05:24:59.641Z,10.97
2023-05-06T05:27:29.527Z,9.20
2023-05-06T05:29:59.854Z,7.97
2023-05-06T05:32:30.247Z,9.93
2023-05-06T05:34:59.910Z,10.03
2023-05-06T05:37:30.238Z,8.47
2023-05-06T05:40:02.402Z,9.20
2023-05-06T05:42:34.175Z,10.90
2023-05-06T05:45:04.333Z,10.90
2023-05-06T05:47:34.191Z,12.63
2023-05-06T05:50:04.738Z,12.17
2023-05-06T05:52:34.248Z,13.97
2023-05-06T05:55:05.979Z,11.17
2023-05-06T05:57:35.589Z,11.30
2023-05-06T06:00:07.190Z,11.07
2023-05-06T06:02:37.879Z,12.67
2023-05-06T06:05:10.515Z,11.37
2023-05-06T06:07:40.761Z,10.77
2023-05-06T06:10:14.660Z,12.60
2023-05-06T06:12:45.196Z,11.23
2023-05-06T06:15:15.231Z,11.13
2023-05-06T06:17:45.384Z,8.43
2023-05-06T06:20:16.360Z,9.70
2023-05-06T06:22:47.462Z,10.90
2023-05-06T06:25:19.817Z,13.90
2023-05-06T06:27:50.106Z,11.47
2023-05-06T06:30:20.303Z,11.90
2023-05-06T06:32:51.557Z,10.00
2023-05-06T06:35:22.514Z,10.53
2023-05-06T06:37:52.543Z,9.80
2023-05-06T06:40:24.494Z,11.70
2023-05-06T06:42:54.943Z,9.60
2023-05-06T06:45:25.767Z,9.03
2023-05-06T06:47:55.850Z,14.23
2023-05-06T06:50:27.529Z,11.60
2023-05-06T06:52:57.700Z,9.70
2023-05-06T06:55:29.956Z,10.73
2023-05-06T06:58:00.656Z,10.33
2023-05-06T07:00:30.366Z,8.97
2023-05-06T07:03:00.869Z,10.97
2023-05-06T07:05:30.560Z,9.23
2023-05-06T07:08:00.986Z,10.67
2023-05-06T07:10:33.430Z,8.60
2023-05-06T07:13:04.109Z,9.13
2023-05-06T07:15:34.426Z,9.37
2023-05-06T07:18:04.717Z,10.83
2023-05-06T07:20:35.229Z,9.30
2023-05-06T07:23:06.007Z,9.57
2023-05-06T07:25:38.081Z,10.37
2023-05-06T07:28:08.575Z,10.50
2023-05-06T07:30:40.938Z,9.23
2023-05-06T07:33:10.691Z,10.87
2023-05-06T07:35:40.950Z,10.93
2023-05-06T07:38:11.847Z,10.30
2023-05-06T07:40:44.060Z,10.67
2023-05-06T07:43:13.926Z,14.23
2023-05-06T07:45:44.596Z,10.67
2023-05-06T07:48:14.866Z,8.70
2023-05-06T07:50:44.899Z,8.87
2023-05-06T07:53:15.296Z,9.17
2023-05-06T07:55:46.956Z,13.67
2023-05-06T07:58:20.296Z,11.37
2023-05-06T08:00:50.139Z,12.27
2023-05-06T08:03:20.649Z,10.27
2023-05-06T08:05:52.702Z,12.17
2023-05-06T08:08:23.077Z,12.13
2023-05-06T08:10:54.666Z,10.30
2023-05-06T08:13:25.253Z,11.50
2023-05-06T08:15:56.033Z,11.00
2023-05-06T08:18:26.536Z,11.00
2023-05-06T08:20:57.393Z,12.70
2023-05-06T08:23:28.162Z,11.37
2023-05-06T08:25:59.476Z,11.40
2023-05-06T08:28:30.269Z,13.50
2023-05-06T08:31:02.253Z,11.70
2023-05-06T08:33:32.854Z,11.00
2023-05-06T08:36:02.995Z,12.60
2023-05-06T08:38:33.058Z,10.40
2023-05-06T08:41:11.265Z,10.00
2023-05-06T08:43:44.185Z,10.60
2023-05-06T08:46:14.381Z,10.03
2023-05-06T08:48:45.543Z,10.50
2023-05-06T08:51:17.124Z,10.17
2023-05-06T08:53:51.986Z,11.03
2023-05-06T08:56:25.567Z,11.43
2023-05-06T08:58:56.514Z,9.57
2023-05-06T09:01:29.236Z,10.47
2023-05-06T09:04:00.437Z,11.67
2023-05-06T09:06:30.438Z,11.17
2023-05-06T09:09:00.569Z,10.77
2023-05-06T09:11:32.649Z,10.73
2023-05-06T09:14:13.698Z,9.27
2023-05-06T09:16:46.238Z,9.83
2023-05-06T09:19:17.876Z,10.10
2023-05-06T09:21:51.494Z,10.73
2023-05-06T09:24:22.207Z,11.53
2023-05-06T09:27:07.177Z,9.37
2023-05-06T09:29:39.762Z,10.30
2023-05-06T09:32:12.022Z,9.00
2023-05-06T09:34:46.837Z,9.90
2023-05-06T09:37:17.087Z,10.07
2023-05-06T09:39:46.846Z,9.90
2023-05-06T09:42:19.019Z,8.13
2023-05-06T09:44:49.475Z,8.30
2023-05-06T09:47:20.633Z,5.87
2023-05-06T09:49:51.902Z,5.93
2023-05-06T09:52:22.437Z,8.30
2023-05-06T09:54:52.853Z,7.10
2023-05-06T09:57:25.715Z,6.57
2023-05-06T09:59:56.889Z,7.00
2023-05-06T10:02:28.771Z,6.33
2023-05-06T10:05:02.000Z,6.87
2023-05-06T10:07:32.221Z,5.57
2023-05-06T10:10:03.341Z,7.73
2023-05-06T10:12:34.645Z,5.87
2023-05-06T10:15:07.061Z,5.97
2023-05-06T10:17:41.040Z,6.10
2023-05-06T10:20:12.510Z,7.57
2023-05-06T10:22:51.608Z,6.50
2023-05-06T10:25:30.274Z,6.40
2023-05-06T10:28:06.248Z,5.97
2023-05-06T10:30:39.442Z,6.13
2023-05-06T10:33:10.767Z,6.90
2023-05-06T10:35:49.487Z,6.07
2023-05-06T10:38:26.130Z,5.93
2023-05-06T10:40:56.693Z,6.20
2023-05-06T10:43:29.937Z,5.37
2023-05-06T10:46:09.525Z,7.20
2023-05-06T10:48:41.645Z,6.67
2023-05-06T10:51:28.680Z,6.43
2023-05-06T10:54:02.910Z,6.47
2023-05-06T10:56:35.344Z,5.83
2023-05-06T10:59:12.066Z,7.00
2023-05-06T11:01:43.764Z,5.67
2023-05-06T11:04:15.673Z,5.63
2023-05-06T11:06:47.132Z,6.63
2023-05-06T11:09:21.206Z,6.97
2023-05-06T11:12:03.174Z,5.63
2023-05-06T11:14:37.161Z,5.67
2023-05-06T11:17:08.976Z,5.63
2023-05-06T11:19:40.516Z,5.37
2023-05-06T11:22:10.781Z,6.40
2023-05-06T11:24:42.348Z,5.87
2023-05-06T11:27:12.920Z,5.83
2023-05-06T11:29:45.477Z,7.53
2023-05-06T11:32:24.999Z,5.30
2023-05-06T11:34:58.248Z,5.43
2023-05-06T11:37:30.398Z,6.30
2023-05-06T11:40:00.257Z,6.10
2023-05-06T11:42:30.963Z,5.87
2023-05-06T11:45:04.164Z,5.50
2023-05-06T11:47:34.962Z,5.47
2023-05-06T11:50:08.014Z,5.10
2023-05-06T11:52:38.177Z,5.03
2023-05-06T11:55:12.014Z,5.63
2023-05-06T11:57:47.898Z,6.10
2023-05-06T12:00:20.620Z,5.40
2023-05-06T12:02:51.074Z,5.43
2023-05-06T12:05:25.335Z,5.90
2023-05-06T12:07:55.583Z,5.67
2023-05-06T12:10:25.803Z,5.60
2023-05-06T12:12:56.208Z,5.33
2023-05-06T12:15:28.692Z,4.90
2023-05-06T12:17:59.618Z,4.80
2023-05-06T12:20:30.186Z,5.67
2023-05-06T12:23:08.847Z,4.93
2023-05-06T12:25:39.040Z,3.50
2023-05-06T12:28:17.394Z,4.33
2023-05-06T12:30:49.942Z,2.47
2023-05-06T12:33:20.217Z,2.63
2023-05-06T12:35:52.004Z,3.30
2023-05-06T12:38:22.998Z,4.43
2023-05-06T12:40:57.427Z,5.90
2023-05-06T12:43:32.830Z,3.30
2023-05-06T12:46:09.560Z,4.20
2023-05-06T12:48:39.939Z,5.13
2023-05-06T12:51:23.086Z,6.40
2023-05-06T12:53:53.534Z,6.03
2023-05-06T12:56:25.087Z,6.87
2023-05-06T12:59:02.827Z,6.43
2023-05-06T13:01:34.905Z,6.50
2023-05-06T13:04:05.342Z,6.73
2023-05-06T13:06:35.984Z,6.67
2023-05-06T13:09:06.703Z,6.80
2023-05-06T13:11:37.002Z,5.60
2023-05-06T13:14:08.039Z,6.47
2023-05-06T13:16:42.726Z,5.17
2023-05-06T13:19:30.769Z,5.87
2023-05-06T13:22:03.303Z,6.10
2023-05-06T13:24:34.516Z,5.70
2023-05-06T13:27:04.456Z,4.83
2023-05-06T13:29:34.554Z,5.40
2023-05-06T13:32:08.653Z,4.90
2023-05-06T13:34:39.210Z,5.20
2023-05-06T13:37:09.069Z,5.53
2023-05-06T13:39:40.093Z,4.60
2023-05-06T13:42:09.978Z,5.60
2023-05-06T13:44:40.096Z,5.60
2023-05-06T13:47:11.957Z,5.10
2023-05-06T13:49:42.348Z,6.00
2023-05-06T13:52:13.082Z,5.90
2023-05-06T13:54:43.340Z,5.53
2023-05-06T13:57:13.494Z,6.50
2023-05-06T13:59:44.198Z,5.60
2023-05-06T14:02:17.148Z,5.80
2023-05-06T14:04:47.702Z,6.20
2023-05-06T14:07:18.434Z,6.87
2023-05-06T14:09:48.253Z,5.43
2023-05-06T14:12:19.878Z,6.07
2023-05-06T14:14:50.612Z,6.57
2023-05-06T14:17:23.138Z,5.80
2023-05-06T14:19:53.198Z,6.40
2023-05-06T14:22:25.384Z,6.90
2023-05-06T14:24:55.251Z,6.13
2023-05-06T14:27:25.234Z,6.73
2023-05-06T14:29:55.467Z,7.80
2023-05-06T14:32:26.930Z,5.60
2023-05-06T14:34:57.227Z,5.53
2023-05-06T14:37:28.165Z,4.47
2023-05-06T14:39:59.892Z,4.27
2023-05-06T14:42:30.904Z,3.27
2023-05-06T14:45:01.900Z,4.67
2023-05-06T14:47:34.844Z,4.00
2023-05-06T14:50:04.806Z,4.00
2023-05-06T14:52:36.200Z,3.80
2023-05-06T14:55:08.752Z,5.00
2023-05-06T14:57:39.444Z,4.97
2023-05-06T15:00:13.576Z,3.53
2023-05-06T15:02:47.133Z,4.00
2023-05-06T15:05:18.041Z,4.20
2023-05-06T15:07:48.636Z,3.20
2023-05-06T15:10:19.193Z,3.83
2023-05-06T15:12:49.810Z,2.93
2023-05-06T15:15:20.391Z,3.23
2023-05-06T15:17:53.054Z,3.27
2023-05-06T15:20:24.347Z,3.43
2023-05-06T15:22:54.588Z,3.00
2023-05-06T15:25:34.962Z,3.90
2023-05-06T15:28:07.356Z,3.10
2023-05-06T15:30:39.443Z,3.50
2023-05-06T15:33:12.248Z,3.97
2023-05-06T15:35:43.130Z,4.90
2023-05-06T15:38:14.520Z,4.60
2023-05-06T15:40:52.928Z,3.80
2023-05-06T15:43:24.595Z,3.33
2023-05-06T15:45:55.582Z,5.40
2023-05-06T15:48:26.573Z,3.63
2023-05-06T15:50:57.711Z,4.37
2023-05-06T15:53:29.198Z,5.10
2023-05-06T15:56:07.517Z,5.90
2023-05-06T15:58:46.885Z,6.00
2023-05-06T16:01:20.812Z,6.50
2023-05-06T16:03:57.058Z,6.53
2023-05-06T16:06:28.061Z,6.60
2023-05-06T16:09:00.149Z,7.37
2023-05-06T16:11:31.037Z,7.63
2023-05-06T16:14:01.345Z,6.20
2023-05-06T16:16:32.732Z,7.53
2023-05-06T16:19:04.924Z,7.17
2023-05-06T16:21:35.257Z,7.90
2023-05-06T16:24:06.592Z,7.27
2023-05-06T16:26:36.770Z,6.80
2023-05-06T16:29:07.176Z,7.43
2023-05-06T16:31:38.342Z,7.50
2023-05-06T16:34:09.866Z,6.17
2023-05-06T16:36:40.546Z,7.47
2023-05-06T16:39:10.578Z,6.83
2023-05-06T16:41:40.581Z,5.90
2023-05-06T16:44:10.902Z,7.77
2023-05-06T16:46:41.367Z,7.40
2023-05-06T16:49:12.658Z,7.30
2023-05-06T16:51:43.283Z,7.90
2023-05-06T16:54:13.506Z,7.90
2023-05-06T16:56:52.200Z,7.67
2023-05-06T16:59:23.929Z,8.50
2023-05-06T17:01:54.886Z,7.80
2023-05-06T17:04:27.248Z,7.30
2023-05-06T17:06:58.185Z,6.70
2023-05-06T17:09:28.876Z,7.07
2023-05-06T17:11:59.325Z,7.73
2023-05-06T17:14:29.741Z,8.10
2023-05-06T17:17:03.261Z,7.07
2023-05-06T17:19:37.144Z,7.93
2023-05-06T17:22:08.587Z,6.90
2023-05-06T17:24:38.795Z,7.60
2023-05-06T17:27:09.660Z,7.87
2023-05-06T17:29:40.160Z,7.90
2023-05-06T17:32:11.495Z,6.83
2023-05-06T17:34:42.951Z,7.97
2023-05-06T17:37:12.853Z,7.70
2023-05-06T17:39:43.164Z,7.93
2023-05-06T17:42:14.236Z,6.73
2023-05-06T17:44:45.494Z,7.27
2023-05-06T17:47:18.165Z,7.70
2023-05-06T17:49:51.404Z,6.53
2023-05-06T17:52:21.729Z,7.73
2023-05-06T17:55:10.642Z,6.57
2023-05-06T17:57:41.556Z,6.80
2023-05-06T18:00:14.371Z,7.00
2023-05-06T18:02:45.507Z,7.03
2023-05-06T18:05:18.879Z,6.23
2023-05-06T18:07:49.844Z,5.00
2023-05-06T18:10:21.215Z,5.87
2023-05-06T18:12:51.572Z,4.80
2023-05-06T18:15:22.587Z,5.20
2023-05-06T18:17:52.338Z,5.30
2023-05-06T18:20:24.203Z,5.70
2023-05-06T18:22:54.804Z,6.83
2023-05-06T18:25:25.597Z,5.60
2023-05-06T18:27:56.280Z,6.40
2023-05-06T18:30:26.536Z,6.13
2023-05-06T18:32:57.172Z,6.30
2023-05-06T18:35:28.804Z,6.20
2023-05-06T18:37:59.506Z,6.10
2023-05-06T18:40:29.801Z,7.00
2023-05-06T18:43:00.288Z,6.20
2023-05-06T18:45:30.720Z,6.90
2023-05-06T18:48:01.512Z,6.10
2023-05-06T18:50:32.800Z,6.30
2023-05-06T18:53:03.536Z,6.50
2023-05-06T18:55:34.252Z,7.00
2023-05-06T18:58:06.075Z,7.23
2023-05-06T19:00:37.392Z,6.43
2023-05-06T19:03:07.528Z,8.13
2023-05-06T19:05:39.179Z,7.50
2023-05-06T19:08:10.635Z,6.50
2023-05-06T19:10:41.146Z,7.50
2023-05-06T19:13:16.045Z,6.70
2023-05-06T19:15:46.720Z,7.00
2023-05-06T19:18:17.407Z,7.40
2023-05-06T19:20:49.654Z,7.60
2023-05-06T19:23:20.284Z,7.07
2023-05-06T19:25:50.166Z,7.00
2023-05-06T19:28:20.966Z,6.47
2023-05-06T19:30:51.036Z,6.10
2023-05-06T19:33:21.123Z,6.60
2023-05-06T19:35:52.595Z,6.33
2023-05-06T19:38:23.304Z,6.40
2023-05-06T19:40:52.694Z,8.00
2023-05-06T19:43:24.900Z,6.43
2023-05-06T19:45:55.454Z,9.43
2023-05-06T19:48:26.816Z,6.37
2023-05-06T19:51:00.594Z,7.03
2023-05-06T19:53:31.321Z,7.97
2023-05-06T19:56:09.642Z,5.60
2023-05-06T19:58:40.085Z,5.63
2023-05-06T20:01:11.471Z,8.93
2023-05-06T20:03:42.636Z,6.53
2023-05-06T20:06:14.689Z,6.30
2023-05-06T20:08:47.111Z,6.90
2023-05-06T20:11:17.217Z,5.90
2023-05-06T20:13:48.033Z,6.63
2023-05-06T20:16:18.394Z,6.30
2023-05-06T20:18:48.137Z,6.73
2023-05-06T20:21:19.280Z,7.00
2023-05-06T20:23:50.389Z,8.07
2023-05-06T20:26:20.434Z,7.40
2023-05-06T20:28:52.791Z,6.30
2023-05-06T20:31:23.100Z,6.97
2023-05-06T20:33:53.028Z,6.93
2023-05-06T20:36:25.116Z,6.67
2023-05-06T20:38:55.438Z,6.83
2023-05-06T20:41:25.842Z,7.50
2023-05-06T20:43:57.480Z,6.80
2023-05-06T20:46:27.527Z,7.30
2023-05-06T20:48:57.352Z,7.27
2023-05-06T20:51:29.682Z,7.90
2023-05-06T20:54:00.963Z,8.70
2023-05-06T20:56:31.765Z,8.70
2023-05-06T20:59:02.294Z,8.37
2023-05-06T21:01:32.026Z,8.67
2023-05-06T21:04:03.939Z,9.10
2023-05-06T21:06:35.053Z,8.00
2023-05-06T21:09:06.913Z,7.90
2023-05-06T21:11:37.590Z,6.90
2023-05-06T21:14:07.920Z,5.93
2023-05-06T21:16:37.651Z,7.30
2023-05-06T21:19:07.261Z,6.90
2023-05-06T21:21:38.758Z,7.10
2023-05-06T21:24:09.279Z,8.60
2023-05-06T21:26:40.712Z,6.80
2023-05-06T21:29:10.711Z,6.43
2023-05-06T21:31:41.062Z,8.37
2023-05-06T21:34:11.774Z,7.93
2023-05-06T21:36:44.354Z,7.40
2023-05-06T21:39:16.302Z,7.33
2023-05-06T21:41:46.140Z,7.60
2023-05-06T21:44:16.545Z,8.33
2023-05-06T21:46:46.945Z,7.10
2023-05-06T21:49:17.190Z,8.37
2023-05-06T21:51:48.839Z,6.47
2023-05-06T21:54:19.049Z,7.27
2023-05-06T21:56:49.374Z,6.23
2023-05-06T21:59:20.323Z,6.63
2023-05-06T22:01:50.012Z,5.93
2023-05-06T22:04:21.200Z,6.20
2023-05-06T22:06:52.372Z,9.13
2023-05-06T22:09:23.717Z,8.10
2023-05-06T22:11:53.933Z,9.30
2023-05-06T22:14:26.944Z,7.73
2023-05-06T22:17:01.856Z,8.17
2023-05-06T22:19:33.258Z,7.80
2023-05-06T22:22:05.686Z,8.03
2023-05-06T22:24:35.949Z,7.90
2023-05-06T22:27:05.991Z,8.40
2023-05-06T22:29:36.266Z,8.60
2023-05-06T22:32:07.409Z,6.47
2023-05-06T22:34:37.463Z,7.13
2023-05-06T22:37:12.662Z,6.13
2023-05-06T22:39:42.906Z,8.20
2023-05-06T22:42:12.639Z,7.80
2023-05-06T22:44:42.948Z,7.70
2023-05-06T22:47:13.349Z,8.53
2023-05-06T22:49:43.960Z,6.73
2023-05-06T22:52:15.678Z,7.03
2023-05-06T22:54:45.668Z,8.20
2023-05-06T22:57:15.779Z,7.30
2023-05-06T22:59:46.205Z,8.40
2023-05-06T23:02:16.770Z,7.20
2023-05-06T23:04:46.801Z,7.80
2023-05-06T23:07:18.341Z,9.43
2023-05-06T23:09:48.811Z,7.80
2023-05-06T23:12:19.795Z,7.53
2023-05-06T23:14:50.297Z,8.13
2023-05-06T23:17:20.508Z,9.23
2023-05-06T23:19:50.667Z,9.93
2023-05-06T23:22:22.592Z,9.50
2023-05-06T23:24:53.521Z,9.43
2023-05-06T23:27:25.885Z,7.23
2023-05-06T23:29:56.642Z,7.93
2023-05-06T23:32:27.659Z,8.30
2023-05-06T23:34:57.928Z,7.73
2023-05-06T23:37:29.305Z,7.73
2023-05-06T23:39:59.962Z,9.47
2023-05-06T23:42:30.308Z,9.30
2023-05-06T23:45:00.994Z,8.70
2023-05-06T23:47:31.099Z,8.67
2023-05-06T23:50:01.703Z,9.10
2023-05-06T23:52:33.612Z,8.87
2023-05-06T23:55:04.903Z,8.90
2023-05-06T23:57:35.492Z,9.63
